createdAt,value
2019-05-10T00:00:16.110Z,8.94
2019-05-10T00:03:02.466Z,9.20
2019-05-10T00:05:49.822Z,9.15
2019-05-10T00:08:35.795Z,8.82
2019-05-10T00:11:29.686Z,9.08
2019-05-10T00:14:04.624Z,9.04
2019-05-10T00:16:32.787Z,9.55
2019-05-10T00:19:00.931Z,9.33
2019-05-10T00:21:29.061Z,9.64
2019-05-10T00:23:57.248Z,9.43
2019-05-10T00:26:25.351Z,9.29
2019-05-10T00:28:53.457Z,9.36
2019-05-10T00:31:21.543Z,9.30
2019-05-10T00:33:49.708Z,9.58
2019-05-10T00:36:17.885Z,9.70
2019-05-10T00:38:46.396Z,9.95
2019-05-10T00:41:14.553Z,9.95
2019-05-10T00:43:42.834Z,9.99
2019-05-10T00:46:10.965Z,10.08
2019-05-10T00:48:39.121Z,10.07
2019-05-10T00:51:07.249Z,10.07
2019-05-10T00:53:35.348Z,10.06
2019-05-10T00:56:03.453Z,10.13
2019-05-10T00:58:31.590Z,10.11
2019-05-10T01:00:59.739Z,10.14
2019-05-10T01:03:27.874Z,10.15
2019-05-10T01:05:56.004Z,10.17
2019-05-10T01:08:24.097Z,10.12
2019-05-10T01:10:52.240Z,10.12
2019-05-10T01:13:20.732Z,10.12
2019-05-10T01:15:49.064Z,10.14
2019-05-10T01:18:17.268Z,10.17
2019-05-10T01:20:45.461Z,10.13
2019-05-10T01:23:13.708Z,10.07
2019-05-10T01:25:41.772Z,10.15
2019-05-10T01:28:09.938Z,10.20
2019-05-10T01:30:38.061Z,10.33
2019-05-10T01:33:06.150Z,10.19
2019-05-10T01:35:34.264Z,10.08
2019-05-10T01:38:02.426Z,10.11
2019-05-10T01:40:30.538Z,10.08
2019-05-10T01:42:58.758Z,10.19
2019-05-10T01:45:26.952Z,10.02
2019-05-10T01:47:55.082Z,10.00
2019-05-10T01:50:23.300Z,9.93
2019-05-10T01:52:51.435Z,9.95
2019-05-10T01:55:19.668Z,10.03
2019-05-10T01:57:47.814Z,10.22
2019-05-10T02:00:16.352Z,10.27
2019-05-10T02:02:44.509Z,10.19
2019-05-10T02:05:13.045Z,10.20
2019-05-10T02:07:41.174Z,10.08
2019-05-10T02:10:09.693Z,9.96
2019-05-10T02:12:37.809Z,10.14
2019-05-10T02:15:06.618Z,10.06
2019-05-10T02:17:34.823Z,9.98
2019-05-10T02:20:03.333Z,10.14
2019-05-10T02:22:31.504Z,10.08
2019-05-10T02:24:59.623Z,10.13
2019-05-10T02:27:27.812Z,10.03
2019-05-10T02:29:55.983Z,10.04
2019-05-10T02:32:24.121Z,10.04
2019-05-10T02:34:52.291Z,9.97
2019-05-10T02:37:20.452Z,10.16
2019-05-10T02:39:48.546Z,10.11
2019-05-10T02:42:16.652Z,9.99
2019-05-10T02:44:44.763Z,9.96
2019-05-10T02:47:12.902Z,10.07
2019-05-10T02:49:41.191Z,10.23
2019-05-10T02:52:09.571Z,10.05
2019-05-10T02:54:37.774Z,9.95
2019-05-10T03:03:09.202Z,9.97
2019-05-10T03:05:57.902Z,9.97
2019-05-10T03:08:26.025Z,10.02
2019-05-10T03:10:58.392Z,9.85
2019-05-10T03:13:50.370Z,9.93
2019-05-10T03:16:22.511Z,10.08
2019-05-10T03:18:53.641Z,9.78
2019-05-10T03:21:23.477Z,9.75
2019-05-10T03:23:51.631Z,9.60
2019-05-10T03:26:19.878Z,9.68
2019-05-10T03:28:48.166Z,9.62
2019-05-10T03:31:16.653Z,9.53
2019-05-10T03:33:44.822Z,9.55
2019-05-10T03:36:13.047Z,9.39
2019-05-10T03:38:41.365Z,9.44
2019-05-10T03:41:09.477Z,9.78
2019-05-10T03:43:37.612Z,9.66
2019-05-10T03:46:05.745Z,9.53
2019-05-10T03:48:33.895Z,9.29
2019-05-10T03:51:02.309Z,9.33
2019-05-10T03:53:30.471Z,9.96
2019-05-10T03:55:58.629Z,9.85
2019-05-10T03:58:26.739Z,9.88
2019-05-10T04:00:54.874Z,9.71
2019-05-10T04:03:22.995Z,10.02
2019-05-10T04:05:51.133Z,9.68
2019-05-10T04:08:19.259Z,9.77
2019-05-10T04:10:47.436Z,9.70
2019-05-10T04:13:15.580Z,9.47
2019-05-10T04:15:43.720Z,9.61
2019-05-10T04:18:11.818Z,9.33
2019-05-10T04:20:39.982Z,9.36
2019-05-10T04:23:08.113Z,9.53
2019-05-10T04:25:36.269Z,9.18
2019-05-10T04:28:04.363Z,9.56
2019-05-10T04:30:32.474Z,9.47
2019-05-10T04:33:00.575Z,9.53
2019-05-10T04:35:28.739Z,9.33
2019-05-10T04:37:56.903Z,9.60
2019-05-10T04:40:25.074Z,9.24
2019-05-10T04:42:53.189Z,9.57
2019-05-10T04:45:21.319Z,9.47
2019-05-10T04:47:49.467Z,9.60
2019-05-10T04:50:17.653Z,9.35
2019-05-10T04:52:45.870Z,9.48
2019-05-10T04:55:13.967Z,9.61
2019-05-10T04:57:50.600Z,9.82
2019-05-10T05:00:12.133Z,9.56
2019-05-10T05:02:40.264Z,9.45
2019-05-10T05:05:09.651Z,9.48
2019-05-10T05:07:37.773Z,9.40
2019-05-10T05:10:06.640Z,9.35
2019-05-10T05:12:34.762Z,9.58
2019-05-10T05:15:02.867Z,9.61
2019-05-10T05:17:30.988Z,9.82
2019-05-10T05:19:59.093Z,9.85
2019-05-10T05:22:27.234Z,9.90
2019-05-10T05:25:01.076Z,9.87
2019-05-10T05:27:25.327Z,9.89
2019-05-10T05:29:53.418Z,9.91
2019-05-10T05:32:21.980Z,10.07
2019-05-10T05:34:50.117Z,10.00
2019-05-10T05:37:18.278Z,9.98
2019-05-10T05:39:46.421Z,9.98
2019-05-10T05:42:14.577Z,10.09
2019-05-10T05:44:42.863Z,10.12
2019-05-10T05:47:10.990Z,10.19
2019-05-10T05:49:39.198Z,10.09
2019-05-10T05:52:07.330Z,10.28
2019-05-10T05:54:35.510Z,10.18
2019-05-10T05:57:03.623Z,10.16
2019-05-10T05:59:31.777Z,10.16
2019-05-10T06:02:00.636Z,10.35
2019-05-10T06:04:30.284Z,10.44
2019-05-10T06:06:59.170Z,10.50
2019-05-10T06:09:31.941Z,10.39
2019-05-10T06:11:58.634Z,10.36
2019-05-10T06:14:26.946Z,10.58
2019-05-10T06:16:55.057Z,10.67
2019-05-10T06:19:29.548Z,10.60
2019-05-10T06:21:58.151Z,10.34
2019-05-10T06:24:22.997Z,10.61
2019-05-10T06:26:51.122Z,10.60
2019-05-10T06:29:19.874Z,10.62
2019-05-10T06:31:48.122Z,10.42
2019-05-10T06:34:16.237Z,10.60
2019-05-10T06:36:44.389Z,10.63
2019-05-10T06:39:12.505Z,10.27
2019-05-10T06:41:40.603Z,10.45
2019-05-10T06:44:08.747Z,10.69
2019-05-10T06:46:36.870Z,10.68
2019-05-10T06:49:08.303Z,10.46
2019-05-10T06:51:35.411Z,10.37
2019-05-10T06:54:03.551Z,10.32
2019-05-10T06:56:31.668Z,10.52
2019-05-10T06:59:12.384Z,10.65
2019-05-10T07:01:29.623Z,10.16
2019-05-10T07:03:57.742Z,10.58
2019-05-10T07:06:25.920Z,10.25
2019-05-10T07:08:58.002Z,10.68
2019-05-10T07:11:24.549Z,10.68
2019-05-10T07:13:53.220Z,10.68
2019-05-10T07:16:24.770Z,10.24
2019-05-10T07:18:54.888Z,10.53
2019-05-10T07:21:21.274Z,9.92
2019-05-10T07:23:49.468Z,10.36
2019-05-10T07:26:24.133Z,10.47
2019-05-10T07:28:51.891Z,10.76
2019-05-10T07:31:17.522Z,10.47
2019-05-10T07:33:45.680Z,10.32
2019-05-10T07:36:15.412Z,10.41
2019-05-10T07:38:44.137Z,10.43
2019-05-10T07:41:12.313Z,10.20
2019-05-10T07:43:40.461Z,10.11
2019-05-10T07:46:09.009Z,10.49
2019-05-10T07:48:41.019Z,10.28
2019-05-10T07:51:07.290Z,10.47
2019-05-10T07:53:35.490Z,10.55
2019-05-10T07:56:06.139Z,10.57
2019-05-10T07:58:38.229Z,10.39
2019-05-10T08:01:03.452Z,10.46
2019-05-10T08:03:35.649Z,10.47
2019-05-10T08:06:02.221Z,10.34
2019-05-10T08:08:30.555Z,10.31
2019-05-10T08:10:59.336Z,10.45
2019-05-10T08:13:28.430Z,10.93
2019-05-10T08:15:56.704Z,10.73
2019-05-10T08:18:26.348Z,10.94
2019-05-10T08:21:01.542Z,10.35
2019-05-10T08:23:43.990Z,10.69
2019-05-10T08:26:20.242Z,10.86
2019-05-10T08:28:44.669Z,10.74
2019-05-10T08:31:12.456Z,10.72
2019-05-10T08:33:44.231Z,11.01
2019-05-10T08:36:36.957Z,10.56
2019-05-10T08:39:10.026Z,10.37
2019-05-10T08:41:32.568Z,10.40
2019-05-10T08:44:04.619Z,10.70
2019-05-10T08:46:40.584Z,10.37
2019-05-10T08:49:02.133Z,10.06
2019-05-10T08:51:32.552Z,10.41
2019-05-10T08:54:01.790Z,10.14
2019-05-10T08:56:30.137Z,10.57
2019-05-10T08:58:58.342Z,10.55
2019-05-10T09:01:30.352Z,10.66
2019-05-10T09:04:01.978Z,10.60
2019-05-10T09:06:26.318Z,10.53
2019-05-10T09:09:01.529Z,10.98
2019-05-10T09:11:24.337Z,11.12
2019-05-10T09:13:53.453Z,11.00
2019-05-10T09:16:23.674Z,11.21
2019-05-10T09:18:53.486Z,11.51
2019-05-10T09:21:22.393Z,9.59
2019-05-10T09:24:01.290Z,12.07
2019-05-10T09:26:22.493Z,11.85
2019-05-10T09:28:55.589Z,12.37
2019-05-10T09:31:22.741Z,12.71
2019-05-10T09:33:54.032Z,12.55
2019-05-10T09:36:23.052Z,12.19
2019-05-10T09:38:52.508Z,11.95
2019-05-10T09:41:22.424Z,12.08
2019-05-10T09:43:50.638Z,12.14
2019-05-10T09:46:22.763Z,12.35
2019-05-10T09:48:54.544Z,11.67
2019-05-10T09:51:27.982Z,12.25
2019-05-10T09:53:48.971Z,12.86
2019-05-10T09:56:17.415Z,12.44
2019-05-10T09:58:48.055Z,12.41
2019-05-10T10:01:21.142Z,11.93
2019-05-10T10:03:47.653Z,11.59
2019-05-10T10:06:15.676Z,11.23
2019-05-10T10:08:51.229Z,11.61
2019-05-10T10:11:15.704Z,11.95
2019-05-10T10:13:48.919Z,12.12
2019-05-10T10:16:14.862Z,12.49
2019-05-10T10:18:43.323Z,11.94
2019-05-10T10:21:13.242Z,11.91
2019-05-10T10:23:41.459Z,11.79
2019-05-10T10:26:12.610Z,11.45
2019-05-10T10:28:54.519Z,11.62
2019-05-10T10:31:29.464Z,12.10
2019-05-10T10:34:07.851Z,12.29
2019-05-10T10:36:40.384Z,12.21
2019-05-10T10:39:07.578Z,12.01
2019-05-10T10:41:35.869Z,12.41
2019-05-10T10:44:04.059Z,12.85
2019-05-10T10:46:34.569Z,13.23
2019-05-10T10:49:02.193Z,13.73
2019-05-10T10:51:32.243Z,13.94
2019-05-10T10:54:00.322Z,13.91
2019-05-10T10:56:28.482Z,13.92
2019-05-10T10:58:58.094Z,13.45
2019-05-10T11:01:37.898Z,13.52
2019-05-10T11:03:56.696Z,13.47
2019-05-10T11:09:40.995Z,13.34
2019-05-10T11:12:14.698Z,14.05
2019-05-10T11:14:45.177Z,13.51
2019-05-10T11:17:11.188Z,13.49
2019-05-10T11:19:41.737Z,14.12
2019-05-10T11:22:10.904Z,13.42
2019-05-10T11:24:39.175Z,13.52
2019-05-10T11:27:15.176Z,13.71
2019-05-10T11:29:37.239Z,13.29
2019-05-10T11:32:16.648Z,13.15
2019-05-10T11:34:38.991Z,14.45
2019-05-10T11:37:05.202Z,14.12
2019-05-10T11:39:41.811Z,14.63
2019-05-10T11:42:07.154Z,13.65
2019-05-10T11:44:41.461Z,14.48
2019-05-10T11:47:21.017Z,13.99
2019-05-10T11:49:40.659Z,13.14
2019-05-10T11:52:10.792Z,13.21
2019-05-10T11:54:38.440Z,12.65
2019-05-10T11:57:10.979Z,13.25
2019-05-10T11:59:41.237Z,14.23
2019-05-10T12:02:10.398Z,13.56
2019-05-10T12:04:39.501Z,14.22
2019-05-10T12:09:36.774Z,13.66
2019-05-10T12:12:05.031Z,13.80
2019-05-10T12:14:33.197Z,14.21
2019-05-10T12:17:05.624Z,14.39
2019-05-10T12:19:36.629Z,16.29
2019-05-10T12:22:04.712Z,14.59
2019-05-10T12:26:13.467Z,14.67
2019-05-10T12:26:24.688Z,14.37
2019-05-10T12:27:18.622Z,14.85
2019-05-10T12:29:31.658Z,14.14
2019-05-10T12:31:59.936Z,14.60
2019-05-10T12:34:30.990Z,13.42
2019-05-10T12:37:03.817Z,14.01
2019-05-10T12:39:30.841Z,15.12
2019-05-10T12:41:58.255Z,13.66
2019-05-10T12:44:26.432Z,13.65
2019-05-10T12:46:54.611Z,14.42
2019-05-10T12:49:22.750Z,15.27
2019-05-10T12:51:51.486Z,15.36
2019-05-10T12:54:23.932Z,17.20
2019-05-10T12:56:49.946Z,17.24
2019-05-10T12:59:18.038Z,16.36
2019-05-10T13:01:46.195Z,17.09
2019-05-10T13:04:16.781Z,15.15
2019-05-10T13:06:44.193Z,15.32
2019-05-10T13:09:12.332Z,14.43
2019-05-10T13:11:40.416Z,15.65
2019-05-10T13:14:09.666Z,14.32
2019-05-10T13:16:38.044Z,16.01
2019-05-10T13:19:06.139Z,15.48
2019-05-10T13:21:34.259Z,16.24
2019-05-10T13:24:02.375Z,16.18
2019-05-10T13:26:30.521Z,16.36
2019-05-10T13:29:02.250Z,18.12
2019-05-10T13:31:28.586Z,17.37
2019-05-10T13:33:56.743Z,17.06
2019-05-10T13:36:30.529Z,17.03
2019-05-10T13:38:54.805Z,17.31
2019-05-10T13:41:23.927Z,15.59
2019-05-10T13:43:52.964Z,15.27
2019-05-10T13:46:21.137Z,16.52
2019-05-10T13:48:49.312Z,15.87
2019-05-10T13:51:17.476Z,16.55
2019-05-10T13:53:46.263Z,15.29
2019-05-10T13:56:14.351Z,17.36
2019-05-10T13:58:42.524Z,16.48
2019-05-10T14:01:13.101Z,15.70
2019-05-10T14:03:44.399Z,16.09
2019-05-10T14:06:10.426Z,16.45
2019-05-10T14:08:42.796Z,15.32
2019-05-10T14:11:08.596Z,17.05
2019-05-10T14:13:41.358Z,15.88
2019-05-10T14:16:06.618Z,15.08
2019-05-10T14:18:34.698Z,15.98
2019-05-10T14:21:02.990Z,15.98
2019-05-10T14:23:35.474Z,16.51
2019-05-10T14:26:01.044Z,17.46
2019-05-10T14:28:29.701Z,16.81
2019-05-10T14:30:59.001Z,16.71
2019-05-10T14:33:27.378Z,17.87
2019-05-10T14:36:00.942Z,18.62
2019-05-10T14:38:25.407Z,17.80
2019-05-10T14:40:53.683Z,16.27
2019-05-10T14:43:21.824Z,16.27
2019-05-10T14:45:49.973Z,17.22
2019-05-10T14:48:27.829Z,16.00
2019-05-10T14:50:47.965Z,16.47
2019-05-10T14:53:19.904Z,16.33
2019-05-10T14:55:46.209Z,16.58
2019-05-10T14:58:14.429Z,17.66
2019-05-10T15:00:42.622Z,16.28
2019-05-10T15:03:10.802Z,14.81
2019-05-10T15:05:38.912Z,14.81
2019-05-10T15:08:07.120Z,17.13
2019-05-10T15:10:39.543Z,15.63
2019-05-10T15:13:05.139Z,14.88
2019-05-10T15:15:37.044Z,15.04
2019-05-10T15:18:03.659Z,15.44
2019-05-10T15:20:35.504Z,14.22
2019-05-10T15:23:01.815Z,16.58
2019-05-10T15:25:30.000Z,15.07
2019-05-10T15:28:00.215Z,14.55
2019-05-10T15:30:28.187Z,15.57
2019-05-10T15:32:56.411Z,15.92
2019-05-10T15:35:24.640Z,16.50
2019-05-10T15:37:52.829Z,14.78
2019-05-10T15:40:21.063Z,15.29
2019-05-10T15:42:49.194Z,15.29
2019-05-10T15:45:19.504Z,15.31
2019-05-10T15:47:51.402Z,14.50
2019-05-10T15:50:17.501Z,13.64
2019-05-10T15:52:46.790Z,15.09
2019-05-10T15:55:17.142Z,16.79
2019-05-10T15:57:45.691Z,17.14
2019-05-10T16:00:14.203Z,17.50
2019-05-10T16:02:42.402Z,17.74
2019-05-10T16:05:24.107Z,17.71
2019-05-10T16:07:40.641Z,17.64
2019-05-10T16:10:09.198Z,17.63
2019-05-10T16:12:42.645Z,15.33
2019-05-10T16:15:06.698Z,15.33
2019-05-10T16:17:34.934Z,15.99
2019-05-10T16:20:03.271Z,15.70
2019-05-10T16:22:32.027Z,14.36
2019-05-10T16:25:02.576Z,16.25
2019-05-10T16:27:34.139Z,13.59
2019-05-10T16:30:00.327Z,14.66
2019-05-10T16:32:29.163Z,14.44
2019-05-10T16:34:58.351Z,13.11
2019-05-10T16:37:26.464Z,14.48
2019-05-10T16:39:54.913Z,14.40
2019-05-10T16:42:27.930Z,13.94
2019-05-10T16:44:53.031Z,14.56
2019-05-10T16:47:21.308Z,15.87
2019-05-10T16:49:53.483Z,15.19
2019-05-10T16:52:25.059Z,14.89
2019-05-10T16:54:49.213Z,15.39
2019-05-10T16:57:17.565Z,14.20
2019-05-10T16:59:46.312Z,13.99
2019-05-10T17:02:14.447Z,14.37
2019-05-10T17:04:42.613Z,15.30
2019-05-10T17:07:13.065Z,14.81
2019-05-10T17:09:39.972Z,13.81
2019-05-10T17:12:08.156Z,15.02
2019-05-10T17:14:36.503Z,15.77
2019-05-10T17:17:04.695Z,15.77
2019-05-10T17:19:33.907Z,15.74
2019-05-10T17:22:02.935Z,15.74
2019-05-10T17:24:31.509Z,15.51
2019-05-10T17:26:59.830Z,15.01
2019-05-10T17:29:27.975Z,14.92
2019-05-10T17:31:56.173Z,13.84
2019-05-10T17:34:29.328Z,14.26
2019-05-10T17:36:57.783Z,13.34
2019-05-10T17:39:26.080Z,14.37
2019-05-10T17:41:57.626Z,14.19
2019-05-10T17:44:24.899Z,13.96
2019-05-10T17:46:55.583Z,14.01
2019-05-10T17:49:23.228Z,13.39
2019-05-10T17:51:51.411Z,13.75
2019-05-10T17:54:19.541Z,14.46
2019-05-10T17:56:47.653Z,14.82
2019-05-10T17:59:15.919Z,14.81
2019-05-10T18:01:44.048Z,14.90
2019-05-10T18:04:12.201Z,15.15
2019-05-10T18:06:40.572Z,15.05
2019-05-10T18:09:08.723Z,14.84
2019-05-10T18:11:42.612Z,14.77
2019-05-10T18:14:06.770Z,14.87
2019-05-10T18:16:34.851Z,14.81
2019-05-10T18:19:03.298Z,14.49
2019-05-10T18:21:31.465Z,14.70
2019-05-10T18:23:59.855Z,14.66
2019-05-10T18:26:28.015Z,14.31
2019-05-10T18:28:56.078Z,14.38
2019-05-10T18:31:24.430Z,13.45
2019-05-10T18:33:54.387Z,13.63
2019-05-10T18:36:24.796Z,13.80
2019-05-10T18:38:52.288Z,13.96
2019-05-10T18:41:20.473Z,14.01
2019-05-10T18:43:48.621Z,13.89
2019-05-10T18:46:16.833Z,13.92
2019-05-10T18:48:46.113Z,14.00
2019-05-10T18:51:18.061Z,13.61
2019-05-10T18:53:44.127Z,13.33
2019-05-10T18:56:12.272Z,13.53
2019-05-10T18:58:40.403Z,13.52
2019-05-10T19:01:08.686Z,13.42
2019-05-10T19:03:37.566Z,13.51
2019-05-10T19:06:11.127Z,13.51
2019-05-10T19:08:35.645Z,13.42
2019-05-10T19:11:04.341Z,13.38
2019-05-10T19:13:34.575Z,13.29
2019-05-10T19:16:02.682Z,13.35
2019-05-10T19:18:30.836Z,13.18
2019-05-10T19:20:59.142Z,13.13
2019-05-10T19:23:27.292Z,13.04
2019-05-10T19:25:55.416Z,12.99
2019-05-10T19:28:26.801Z,12.94
2019-05-10T19:30:58.604Z,12.86
2019-05-10T19:33:23.402Z,12.79
2019-05-10T19:35:51.562Z,12.30
2019-05-10T19:38:19.795Z,12.56
2019-05-10T19:40:47.968Z,12.45
2019-05-10T19:43:21.770Z,12.55
2019-05-10T19:45:51.227Z,12.45
2019-05-10T19:48:15.975Z,12.49
2019-05-10T19:50:45.425Z,12.37
2019-05-10T19:53:13.724Z,12.30
2019-05-10T19:55:41.866Z,11.99
2019-05-10T19:58:10.031Z,11.55
2019-05-10T20:00:38.255Z,11.91
2019-05-10T20:03:06.765Z,12.02
2019-05-10T20:05:34.955Z,12.01
2019-05-10T20:08:03.154Z,11.96
2019-05-10T20:10:31.262Z,11.92
2019-05-10T20:12:59.474Z,11.91
2019-05-10T20:15:27.605Z,11.80
2019-05-10T20:17:56.028Z,10.69
2019-05-10T20:20:24.521Z,10.79
2019-05-10T20:22:53.223Z,11.17
2019-05-10T20:25:21.499Z,11.32
2019-05-10T20:27:49.672Z,11.47
2019-05-10T20:30:17.945Z,11.46
2019-05-10T20:32:47.754Z,11.46
2019-05-10T20:35:15.962Z,11.45
2019-05-10T20:38:01.250Z,11.30
2019-05-10T20:40:20.817Z,10.44
2019-05-10T20:42:49.053Z,10.66
2019-05-10T20:45:17.241Z,11.02
2019-05-10T20:47:45.511Z,11.13
2019-05-10T20:50:13.780Z,11.11
2019-05-10T20:52:41.944Z,11.17
2019-05-10T20:55:10.627Z,11.11
2019-05-10T20:57:38.731Z,11.01
2019-05-10T21:00:07.728Z,9.34
2019-05-10T21:02:35.839Z,11.03
2019-05-10T21:05:04.093Z,10.99
2019-05-10T21:07:32.238Z,10.45
2019-05-10T21:10:00.381Z,10.56
2019-05-10T21:12:28.485Z,10.59
2019-05-10T21:14:56.600Z,10.39
2019-05-10T21:17:24.870Z,10.42
2019-05-10T21:19:52.947Z,10.53
2019-05-10T21:22:21.095Z,10.62
2019-05-10T21:24:49.375Z,10.57
2019-05-10T21:27:17.516Z,10.58
2019-05-10T21:29:45.831Z,10.45
2019-05-10T21:32:14.139Z,10.48
2019-05-10T21:34:42.343Z,10.47
2019-05-10T21:37:10.595Z,10.43
2019-05-10T21:39:39.579Z,10.42
2019-05-10T21:42:07.729Z,10.37
2019-05-10T21:44:35.908Z,10.33
2019-05-10T21:47:04.028Z,10.33
2019-05-10T21:49:32.159Z,9.98
2019-05-10T21:52:00.346Z,10.15
2019-05-10T21:54:28.528Z,10.20
2019-05-10T21:56:56.737Z,9.88
2019-05-10T21:59:24.910Z,9.62
2019-05-10T22:01:53.118Z,9.07
2019-05-10T22:04:21.360Z,9.18
2019-05-10T22:06:49.521Z,9.05
2019-05-10T22:09:17.628Z,9.67
2019-05-10T22:11:46.035Z,9.53
2019-05-10T22:14:14.419Z,9.90
2019-05-10T22:16:42.540Z,10.02
2019-05-10T22:19:10.713Z,10.02
2019-05-10T22:21:38.822Z,10.08
2019-05-10T22:24:07.017Z,10.04
2019-05-10T22:26:35.171Z,10.05
2019-05-10T22:29:03.333Z,10.04
2019-05-10T22:31:31.528Z,10.04
2019-05-10T22:33:59.653Z,10.01
2019-05-10T22:36:27.807Z,10.02
2019-05-10T22:39:06.525Z,9.94
2019-05-10T22:41:25.795Z,9.95
2019-05-10T22:43:54.009Z,9.94
2019-05-10T22:46:22.124Z,9.71
2019-05-10T22:48:50.316Z,9.93
2019-05-10T22:51:18.684Z,9.93
2019-05-10T22:53:59.080Z,9.88
2019-05-10T22:56:16.892Z,8.23
2019-05-10T22:58:45.267Z,9.88
2019-05-10T23:01:13.379Z,9.83
2019-05-10T23:03:41.558Z,9.85
2019-05-10T23:06:09.919Z,9.83
2019-05-10T23:08:38.062Z,9.78
2019-05-10T23:11:07.415Z,9.10
2019-05-10T23:13:39.384Z,8.82
2019-05-10T23:16:07.551Z,9.41
2019-05-10T23:18:35.712Z,9.38
2019-05-10T23:21:03.943Z,9.38
2019-05-10T23:23:32.083Z,8.97
2019-05-10T23:26:00.278Z,9.33
2019-05-10T23:28:28.779Z,9.46
2019-05-10T23:30:56.948Z,9.36
2019-05-10T23:33:25.087Z,9.15
2019-05-10T23:35:53.242Z,9.44
2019-05-10T23:38:21.420Z,9.38
2019-05-10T23:40:49.542Z,9.43
2019-05-10T23:43:17.759Z,9.51
2019-05-10T23:45:45.907Z,9.08
2019-05-10T23:48:14.150Z,9.27
2019-05-10T23:50:42.430Z,9.13
2019-05-10T23:53:10.674Z,9.15
2019-05-10T23:55:38.842Z,9.32
2019-05-10T23:58:06.958Z,9.37
